createdAt,value
2018-08-13T00:01:48.132Z,3.00
2018-08-13T00:03:45.128Z,3.20
2018-08-13T00:04:47.169Z,3.20
2018-08-13T00:05:39.146Z,3.20
2018-08-13T00:06:39.641Z,3.10
2018-08-13T00:07:39.131Z,2.80
2018-08-13T00:08:41.124Z,3.00
2018-08-13T00:09:39.135Z,2.90
2018-08-13T00:10:38.634Z,3.30
2018-08-13T00:11:38.583Z,2.80
2018-08-13T00:12:38.573Z,3.30
2018-08-13T00:13:39.139Z,2.90
2018-08-13T00:14:39.144Z,3.10
2018-08-13T00:15:39.128Z,2.90
2018-08-13T00:16:38.585Z,3.30
2018-08-13T00:17:41.238Z,2.90
2018-08-13T00:18:38.767Z,3.00
2018-08-13T00:19:38.647Z,2.60
2018-08-13T00:20:38.644Z,2.90
2018-08-13T00:21:38.633Z,3.10
2018-08-13T00:22:38.745Z,2.90
2018-08-13T00:23:38.749Z,3.00
2018-08-13T00:24:38.661Z,2.90
2018-08-13T00:25:38.663Z,3.10
2018-08-13T00:26:38.624Z,3.10
2018-08-13T00:27:38.669Z,2.80
2018-08-13T00:28:38.617Z,2.90
2018-08-13T00:29:38.680Z,2.80
2018-08-13T00:30:38.637Z,3.10
2018-08-13T00:31:38.634Z,2.90
2018-08-13T00:32:38.638Z,2.80
2018-08-13T00:33:38.644Z,3.00
2018-08-13T00:34:38.711Z,2.70
2018-08-13T00:35:38.670Z,2.60
2018-08-13T00:36:38.736Z,2.80
2018-08-13T00:37:38.705Z,3.00
2018-08-13T00:38:38.710Z,2.90
2018-08-13T00:39:38.691Z,2.70
2018-08-13T00:40:38.723Z,2.70
2018-08-13T00:41:38.704Z,2.90
2018-08-13T00:42:38.729Z,3.30
2018-08-13T00:43:38.675Z,2.80
2018-08-13T00:44:38.680Z,2.90
2018-08-13T00:45:38.697Z,2.70
2018-08-13T00:46:38.745Z,2.70
2018-08-13T00:47:38.681Z,3.00
2018-08-13T00:48:38.721Z,3.20
2018-08-13T00:49:38.776Z,2.80
2018-08-13T00:50:38.745Z,2.80
2018-08-13T00:51:38.733Z,2.90
2018-08-13T00:52:38.732Z,2.90
2018-08-13T00:53:38.740Z,3.20
2018-08-13T00:54:38.704Z,3.10
2018-08-13T00:55:38.709Z,2.90
2018-08-13T00:56:38.767Z,2.80
2018-08-13T00:57:38.717Z,3.00
2018-08-13T00:58:38.722Z,3.10
2018-08-13T00:59:38.905Z,2.70
2018-08-13T01:00:38.752Z,3.00
2018-08-13T01:01:38.748Z,2.90
2018-08-13T01:02:38.747Z,2.90
2018-08-13T01:03:38.777Z,3.20
2018-08-13T01:04:38.769Z,3.10
2018-08-13T01:05:50.169Z,2.80
2018-08-13T01:06:41.151Z,2.90
2018-08-13T01:07:40.668Z,3.10
2018-08-13T01:08:38.784Z,3.00
2018-08-13T01:09:38.790Z,2.50
2018-08-13T01:10:38.777Z,2.80
2018-08-13T01:11:38.794Z,2.90
2018-08-13T01:12:38.844Z,3.30
2018-08-13T01:13:38.941Z,3.00
2018-08-13T01:14:38.761Z,3.00
2018-08-13T01:15:38.770Z,2.90
2018-08-13T01:16:38.844Z,3.20
2018-08-13T01:17:39.656Z,2.70
2018-08-13T01:18:38.828Z,2.80
2018-08-13T01:19:38.835Z,2.70
2018-08-13T01:20:38.802Z,3.10
2018-08-13T01:21:38.809Z,2.80
2018-08-13T01:22:38.813Z,2.90
2018-08-13T01:23:38.813Z,2.50
2018-08-13T01:24:38.832Z,2.90
2018-08-13T01:25:38.822Z,2.70
2018-08-13T01:26:38.797Z,2.60
2018-08-13T01:27:38.831Z,3.00
2018-08-13T01:28:38.836Z,3.20
2018-08-13T01:29:38.858Z,2.90
2018-08-13T01:30:38.937Z,2.50
2018-08-13T01:31:38.827Z,2.90
2018-08-13T01:32:38.854Z,2.90
2018-08-13T01:33:38.866Z,3.20
2018-08-13T01:34:38.868Z,3.10
2018-08-13T01:35:38.863Z,3.00
2018-08-13T01:36:38.865Z,3.30
2018-08-13T01:37:39.672Z,3.10
2018-08-13T01:38:38.900Z,3.00
2018-08-13T01:39:38.999Z,3.00
2018-08-13T01:40:38.833Z,3.20
2018-08-13T01:41:38.855Z,2.80
2018-08-13T01:42:38.950Z,2.90
2018-08-13T01:43:38.912Z,3.00
2018-08-13T01:44:38.850Z,2.70
2018-08-13T01:45:39.671Z,2.90
2018-08-13T01:46:38.913Z,3.00
2018-08-13T01:47:38.924Z,3.10
2018-08-13T01:48:38.944Z,3.00
2018-08-13T01:49:38.919Z,3.10
2018-08-13T01:50:38.919Z,2.80
2018-08-13T01:51:38.911Z,2.90
2018-08-13T01:52:38.929Z,3.10
2018-08-13T01:53:38.913Z,3.30
2018-08-13T01:54:38.922Z,3.30
2018-08-13T01:55:38.885Z,2.90
2018-08-13T01:56:38.919Z,3.00
2018-08-13T01:57:38.956Z,2.90
2018-08-13T01:58:38.913Z,2.90
2018-08-13T01:59:38.935Z,3.20
2018-08-13T02:00:38.960Z,2.90
2018-08-13T02:01:38.959Z,2.80
2018-08-13T02:02:38.942Z,2.50
2018-08-13T02:03:38.908Z,2.90
2018-08-13T02:04:38.963Z,2.70
2018-08-13T02:05:38.980Z,2.70
2018-08-13T02:06:38.940Z,2.50
2018-08-13T02:07:38.965Z,2.90
2018-08-13T02:08:39.679Z,3.00
2018-08-13T02:09:38.931Z,2.80
2018-08-13T02:10:38.954Z,2.80
2018-08-13T02:11:38.937Z,2.80
2018-08-13T02:12:38.934Z,2.70
2018-08-13T02:13:38.946Z,2.70
2018-08-13T02:14:38.981Z,3.30
2018-08-13T02:15:38.949Z,3.00
2018-08-13T02:16:38.979Z,2.60
2018-08-13T02:17:38.963Z,2.90
2018-08-13T02:18:38.987Z,3.00
2018-08-13T02:19:38.988Z,2.90
2018-08-13T02:20:38.970Z,2.80
2018-08-13T02:21:38.992Z,3.00
2018-08-13T02:22:38.975Z,2.40
2018-08-13T02:23:38.989Z,2.80
2018-08-13T02:24:38.960Z,2.60
2018-08-13T02:25:39.012Z,2.40
2018-08-13T02:26:39.015Z,2.80
2018-08-13T02:27:38.995Z,2.60
2018-08-13T02:28:38.991Z,2.50
2018-08-13T02:29:39.028Z,2.50
2018-08-13T02:30:38.992Z,2.90
2018-08-13T02:31:39.002Z,2.80
2018-08-13T02:32:39.037Z,2.50
2018-08-13T02:33:39.032Z,2.70
2018-08-13T02:34:39.039Z,2.80
2018-08-13T02:35:39.042Z,2.30
2018-08-13T02:36:39.055Z,2.80
2018-08-13T02:37:39.125Z,2.70
2018-08-13T02:38:39.060Z,2.90
2018-08-13T02:39:39.071Z,2.50
2018-08-13T02:40:39.061Z,2.40
2018-08-13T02:41:39.073Z,3.10
2018-08-13T02:42:39.025Z,2.60
2018-08-13T02:43:39.054Z,2.40
2018-08-13T02:44:39.055Z,2.70
2018-08-13T02:45:39.036Z,2.80
2018-08-13T02:46:39.084Z,2.90
2018-08-13T02:47:39.694Z,2.80
2018-08-13T02:48:39.100Z,2.60
2018-08-13T02:49:39.085Z,2.50
2018-08-13T02:50:39.087Z,2.90
2018-08-13T02:51:39.160Z,3.00
2018-08-13T02:52:39.171Z,2.70
2018-08-13T02:53:39.142Z,2.90
2018-08-13T02:54:39.078Z,2.80
2018-08-13T02:55:40.773Z,2.90
2018-08-13T02:56:39.087Z,2.80
2018-08-13T02:57:39.063Z,2.80
2018-08-13T02:58:39.111Z,3.10
2018-08-13T02:59:39.108Z,3.10
2018-08-13T03:00:39.196Z,2.60
2018-08-13T03:01:39.187Z,2.80
2018-08-13T03:02:39.108Z,2.70
2018-08-13T03:03:39.103Z,2.90
2018-08-13T03:04:39.124Z,2.60
2018-08-13T03:05:39.178Z,2.40
2018-08-13T03:06:39.157Z,2.60
2018-08-13T03:07:39.151Z,2.70
2018-08-13T03:08:39.121Z,2.90
2018-08-13T03:09:39.139Z,2.90
2018-08-13T03:10:39.099Z,2.70
2018-08-13T03:11:39.175Z,2.80
2018-08-13T03:12:39.152Z,2.70
2018-08-13T03:13:39.160Z,2.80
2018-08-13T03:14:39.169Z,2.70
2018-08-13T03:15:39.133Z,2.40
2018-08-13T03:16:39.121Z,2.70
2018-08-13T03:17:39.218Z,2.50
2018-08-13T03:18:39.116Z,2.60
2018-08-13T03:19:39.130Z,2.90
2018-08-13T03:20:39.156Z,2.60
2018-08-13T03:21:39.175Z,2.40
2018-08-13T03:22:39.157Z,2.60
2018-08-13T03:23:39.194Z,2.70
2018-08-13T03:24:39.164Z,2.50
2018-08-13T03:25:39.199Z,2.60
2018-08-13T03:26:39.216Z,2.50
2018-08-13T03:27:39.162Z,2.40
2018-08-13T03:28:39.178Z,2.80
2018-08-13T03:29:39.151Z,2.70
2018-08-13T03:30:39.187Z,2.60
2018-08-13T03:31:39.204Z,2.70
2018-08-13T03:32:39.172Z,2.70
2018-08-13T03:33:39.181Z,3.00
2018-08-13T03:34:39.217Z,3.10
2018-08-13T03:35:39.273Z,2.70
2018-08-13T03:36:39.230Z,2.40
2018-08-13T03:37:39.178Z,3.00
2018-08-13T03:38:39.227Z,2.90
2018-08-13T03:39:39.194Z,2.80
2018-08-13T03:40:39.247Z,3.20
2018-08-13T03:41:39.205Z,3.10
2018-08-13T03:42:39.716Z,3.00
2018-08-13T03:43:39.213Z,2.90
2018-08-13T03:44:39.292Z,2.70
2018-08-13T03:45:39.290Z,3.00
2018-08-13T03:46:39.364Z,2.70
2018-08-13T03:47:39.307Z,2.80
2018-08-13T03:48:39.231Z,2.80
2018-08-13T03:49:39.262Z,3.00
2018-08-13T03:50:39.254Z,3.00
2018-08-13T03:51:39.245Z,2.70
2018-08-13T03:52:39.283Z,2.90
2018-08-13T03:53:39.331Z,2.50
2018-08-13T03:54:39.228Z,2.90
2018-08-13T03:55:39.273Z,2.70
2018-08-13T03:56:39.269Z,2.40
2018-08-13T03:57:39.282Z,2.80
2018-08-13T03:58:39.351Z,2.80
2018-08-13T03:59:39.299Z,2.80
2018-08-13T04:00:39.288Z,2.50
2018-08-13T04:01:39.340Z,2.80
2018-08-13T04:02:39.330Z,2.40
2018-08-13T04:03:39.302Z,2.60
2018-08-13T04:04:39.268Z,2.70
2018-08-13T04:05:39.263Z,2.90
2018-08-13T04:06:39.276Z,2.50
2018-08-13T04:07:39.274Z,2.90
2018-08-13T04:08:39.306Z,2.70
2018-08-13T04:09:39.260Z,2.40
2018-08-13T04:10:39.296Z,2.50
2018-08-13T04:11:39.418Z,2.60
2018-08-13T04:12:39.340Z,2.80
2018-08-13T04:13:39.364Z,2.90
2018-08-13T04:14:39.323Z,2.50
2018-08-13T04:15:39.318Z,2.80
2018-08-13T04:16:39.289Z,3.00
2018-08-13T04:17:39.301Z,3.00
2018-08-13T04:18:39.322Z,2.90
2018-08-13T04:19:39.313Z,2.50
2018-08-13T04:20:39.373Z,2.90
2018-08-13T04:21:39.339Z,2.60
2018-08-13T04:22:39.398Z,2.70
2018-08-13T04:23:39.339Z,2.70
2018-08-13T04:24:39.300Z,2.60
2018-08-13T04:25:39.393Z,3.00
2018-08-13T04:26:39.336Z,2.80
2018-08-13T04:27:39.365Z,2.70
2018-08-13T04:28:39.323Z,2.90
2018-08-13T04:29:39.349Z,2.80
2018-08-13T04:30:39.387Z,2.80
2018-08-13T04:31:39.373Z,2.80
2018-08-13T04:32:39.364Z,2.90
2018-08-13T04:33:39.343Z,2.80
2018-08-13T04:34:39.370Z,2.90
2018-08-13T04:35:39.397Z,3.10
2018-08-13T04:36:39.402Z,2.90
2018-08-13T04:37:39.356Z,2.90
2018-08-13T04:38:39.408Z,3.00
2018-08-13T04:39:39.432Z,2.80
2018-08-13T04:40:40.241Z,3.10
2018-08-13T04:41:39.410Z,2.80
2018-08-13T04:42:39.398Z,3.30
2018-08-13T04:43:39.420Z,3.00
2018-08-13T04:44:39.418Z,3.10
2018-08-13T04:45:39.407Z,3.10
2018-08-13T04:46:39.462Z,3.00
2018-08-13T04:47:39.433Z,3.10
2018-08-13T04:48:39.446Z,2.90
2018-08-13T04:49:39.406Z,2.80
2018-08-13T04:50:39.391Z,2.80
2018-08-13T04:51:39.440Z,2.80
2018-08-13T04:52:39.390Z,2.90
2018-08-13T04:53:39.473Z,3.20
2018-08-13T04:54:39.409Z,3.00
2018-08-13T04:55:39.474Z,2.80
2018-08-13T04:56:39.475Z,3.00
2018-08-13T04:57:39.443Z,2.80
2018-08-13T04:58:39.426Z,3.10
2018-08-13T04:59:39.454Z,2.90
2018-08-13T05:00:39.434Z,3.00
2018-08-13T05:01:39.449Z,2.90
2018-08-13T05:02:39.457Z,3.00
2018-08-13T05:03:39.425Z,2.80
2018-08-13T05:04:39.470Z,3.10
2018-08-13T05:05:39.437Z,3.10
2018-08-13T05:06:39.442Z,2.90
2018-08-13T05:07:39.463Z,3.00
2018-08-13T05:08:39.465Z,2.90
2018-08-13T05:09:39.475Z,3.20
2018-08-13T05:10:39.447Z,3.30
2018-08-13T05:11:39.519Z,2.80
2018-08-13T05:12:39.501Z,2.70
2018-08-13T05:13:39.462Z,3.10
2018-08-13T05:14:39.474Z,2.80
2018-08-13T05:15:39.489Z,2.70
2018-08-13T05:16:39.497Z,3.10
2018-08-13T05:17:39.471Z,3.30
2018-08-13T05:18:39.545Z,3.50
2018-08-13T05:19:39.463Z,2.50
2018-08-13T05:20:39.530Z,3.10
2018-08-13T05:21:39.508Z,3.20
2018-08-13T05:22:39.501Z,2.70
2018-08-13T05:23:39.490Z,2.80
2018-08-13T05:24:39.686Z,3.50
2018-08-13T05:25:39.564Z,3.10
2018-08-13T05:26:39.497Z,3.20
2018-08-13T05:27:39.496Z,3.70
2018-08-13T05:28:39.502Z,3.40
2018-08-13T05:29:39.501Z,3.40
2018-08-13T05:30:39.524Z,3.60
2018-08-13T05:31:39.540Z,3.70
2018-08-13T05:32:39.585Z,3.90
2018-08-13T05:33:39.544Z,3.70
2018-08-13T05:34:39.646Z,3.70
2018-08-13T05:35:39.530Z,3.50
2018-08-13T05:36:39.542Z,3.60
2018-08-13T05:37:39.653Z,3.80
2018-08-13T05:38:39.570Z,3.50
2018-08-13T05:39:39.580Z,3.60
2018-08-13T05:40:39.583Z,3.30
2018-08-13T05:41:39.552Z,3.70
2018-08-13T05:42:39.576Z,3.60
2018-08-13T05:43:39.620Z,3.80
2018-08-13T05:44:39.564Z,3.70
2018-08-13T05:45:39.579Z,3.80
2018-08-13T05:46:39.605Z,3.20
2018-08-13T05:47:39.595Z,3.30
2018-08-13T05:48:39.592Z,3.30
2018-08-13T05:49:39.586Z,2.80
2018-08-13T05:50:39.619Z,2.90
2018-08-13T05:51:39.599Z,3.10
2018-08-13T05:52:39.581Z,2.70
2018-08-13T05:53:39.603Z,2.80
2018-08-13T05:54:39.603Z,3.00
2018-08-13T05:55:39.676Z,3.40
2018-08-13T05:56:39.579Z,3.50
2018-08-13T05:57:40.280Z,2.90
2018-08-13T05:58:39.631Z,3.20
2018-08-13T05:59:39.637Z,3.20
2018-08-13T06:00:39.648Z,3.00
2018-08-13T06:01:39.584Z,3.10
2018-08-13T06:02:39.626Z,2.90
2018-08-13T06:03:39.673Z,2.70
2018-08-13T06:04:39.633Z,2.90
2018-08-13T06:05:39.642Z,3.10
2018-08-13T06:06:39.654Z,3.10
2018-08-13T06:07:39.661Z,3.10
2018-08-13T06:08:39.656Z,3.50
2018-08-13T06:09:39.654Z,3.30
2018-08-13T06:10:39.853Z,3.00
2018-08-13T06:11:39.725Z,3.00
2018-08-13T06:12:39.659Z,3.40
2018-08-13T06:13:39.637Z,3.20
2018-08-13T06:14:39.634Z,3.10
2018-08-13T06:15:39.668Z,2.80
2018-08-13T06:16:39.674Z,3.20
2018-08-13T06:17:39.635Z,3.70
2018-08-13T06:18:39.642Z,3.40
2018-08-13T06:19:39.675Z,3.60
2018-08-13T06:20:39.657Z,3.30
2018-08-13T06:21:39.659Z,3.40
2018-08-13T06:22:39.708Z,3.40
2018-08-13T06:23:39.752Z,3.20
2018-08-13T06:24:39.673Z,3.50
2018-08-13T06:25:39.710Z,3.70
2018-08-13T06:26:39.666Z,3.60
2018-08-13T06:27:39.701Z,4.00
2018-08-13T06:28:40.786Z,3.70
2018-08-13T06:29:39.701Z,3.60
2018-08-13T06:30:39.792Z,3.60
2018-08-13T06:31:39.728Z,3.80
2018-08-13T06:32:39.749Z,3.90
2018-08-13T06:33:39.721Z,3.60
2018-08-13T06:34:39.737Z,3.40
2018-08-13T06:35:39.742Z,3.60
2018-08-13T06:36:39.748Z,3.70
2018-08-13T06:37:39.738Z,3.90
2018-08-13T06:38:39.750Z,4.10
2018-08-13T06:39:39.739Z,3.40
2018-08-13T06:40:39.782Z,3.70
2018-08-13T06:41:39.738Z,4.00
2018-08-13T06:42:39.768Z,4.10
2018-08-13T06:43:39.724Z,4.00
2018-08-13T06:44:39.828Z,4.20
2018-08-13T06:45:39.744Z,4.00
2018-08-13T06:46:39.750Z,4.30
2018-08-13T06:47:39.758Z,4.30
2018-08-13T06:48:39.746Z,4.40
2018-08-13T06:49:39.747Z,4.00
2018-08-13T06:50:39.809Z,4.60
2018-08-13T06:51:39.775Z,4.60
2018-08-13T06:52:39.804Z,4.20
2018-08-13T06:53:39.777Z,4.30
2018-08-13T06:54:39.823Z,4.30
2018-08-13T06:55:39.794Z,3.80
2018-08-13T06:56:39.786Z,4.50
2018-08-13T06:57:39.817Z,4.30
2018-08-13T06:58:39.785Z,4.00
2018-08-13T06:59:39.786Z,4.60
2018-08-13T07:00:39.897Z,4.10
2018-08-13T07:01:40.396Z,4.40
2018-08-13T07:02:39.819Z,5.10
2018-08-13T07:03:39.794Z,11.40
2018-08-13T07:04:39.841Z,4.40
2018-08-13T07:05:39.882Z,4.30
2018-08-13T07:06:39.929Z,4.20
2018-08-13T07:07:39.823Z,4.50
2018-08-13T07:08:39.877Z,4.40
2018-08-13T07:09:39.850Z,4.50
2018-08-13T07:10:39.862Z,4.60
2018-08-13T07:11:39.872Z,4.30
2018-08-13T07:12:40.306Z,4.60
2018-08-13T07:13:39.840Z,5.00
2018-08-13T07:14:39.893Z,4.90
2018-08-13T07:15:39.870Z,5.10
2018-08-13T07:16:39.891Z,4.50
2018-08-13T07:17:39.871Z,4.60
2018-08-13T07:18:39.847Z,4.80
2018-08-13T07:19:39.854Z,4.80
2018-08-13T07:20:39.929Z,4.60
2018-08-13T07:21:39.844Z,5.10
2018-08-13T07:22:39.857Z,4.80
2018-08-13T07:23:39.849Z,4.60
2018-08-13T07:24:39.881Z,4.80
2018-08-13T07:25:39.997Z,4.90
2018-08-13T07:26:39.859Z,4.70
2018-08-13T07:27:39.922Z,4.60
2018-08-13T07:28:39.866Z,5.00
2018-08-13T07:29:39.889Z,4.80
2018-08-13T07:30:39.904Z,4.50
2018-08-13T07:31:40.046Z,5.20
2018-08-13T07:32:39.942Z,4.70
2018-08-13T07:33:40.027Z,5.30
2018-08-13T07:34:39.999Z,5.20
2018-08-13T07:35:40.823Z,5.20
2018-08-13T07:36:40.333Z,5.50
2018-08-13T07:37:39.961Z,4.90
2018-08-13T07:38:39.947Z,5.60
2018-08-13T07:39:40.082Z,5.20
2018-08-13T07:40:40.026Z,5.30
2018-08-13T07:41:39.978Z,6.00
2018-08-13T07:42:40.051Z,6.20
2018-08-13T07:43:39.992Z,5.60
2018-08-13T07:44:40.029Z,5.30
2018-08-13T07:45:40.091Z,5.50
2018-08-13T07:46:40.033Z,5.80
2018-08-13T07:47:40.132Z,6.10
2018-08-13T07:48:40.826Z,5.30
2018-08-13T07:49:40.029Z,5.60
2018-08-13T07:50:40.025Z,5.60
2018-08-13T07:51:40.221Z,5.20
2018-08-13T07:52:40.030Z,5.40
2018-08-13T07:53:40.021Z,5.00
2018-08-13T07:54:40.041Z,5.60
2018-08-13T07:55:40.042Z,4.80
2018-08-13T07:56:40.206Z,5.40
2018-08-13T07:57:40.421Z,5.00
2018-08-13T07:58:40.041Z,5.20
2018-08-13T07:59:40.831Z,5.20
2018-08-13T08:00:40.440Z,5.60
2018-08-13T08:01:40.016Z,5.80
2018-08-13T08:02:40.061Z,5.20
2018-08-13T08:03:40.825Z,5.10
2018-08-13T08:04:40.153Z,4.80
2018-08-13T08:05:41.025Z,5.40
2018-08-13T08:06:40.144Z,5.10
2018-08-13T08:07:40.157Z,5.20
2018-08-13T08:08:40.425Z,5.10
2018-08-13T08:11:14.327Z,4.90
2018-08-13T08:12:12.667Z,4.80
2018-08-13T08:13:13.084Z,4.80
2018-08-13T08:14:13.369Z,5.10
2018-08-13T08:15:12.291Z,5.10
2018-08-13T08:16:12.297Z,4.80
2018-08-13T08:17:12.305Z,5.20
2018-08-13T08:18:12.311Z,5.50
2018-08-13T08:19:12.337Z,5.10
2018-08-13T08:20:12.310Z,5.40
2018-08-13T08:21:12.356Z,5.10
2018-08-13T08:22:12.320Z,4.60
2018-08-13T08:23:12.390Z,5.00
2018-08-13T08:24:12.339Z,4.50
2018-08-13T08:25:12.344Z,4.20
2018-08-13T08:26:12.346Z,4.40
2018-08-13T08:27:12.343Z,4.60
2018-08-13T08:28:12.339Z,4.40
2018-08-13T08:29:12.402Z,4.40
2018-08-13T08:30:12.378Z,4.30
2018-08-13T08:31:12.435Z,4.90
2018-08-13T08:32:12.361Z,4.60
2018-08-13T08:33:12.375Z,5.10
2018-08-13T08:34:12.384Z,4.50
2018-08-13T08:35:12.369Z,4.10
2018-08-13T08:36:12.377Z,4.20
2018-08-13T08:37:12.388Z,4.00
2018-08-13T08:38:12.407Z,3.90
2018-08-13T08:39:12.396Z,3.90
2018-08-13T08:40:12.411Z,3.90
2018-08-13T08:41:12.413Z,4.00
2018-08-13T08:42:12.428Z,4.00
2018-08-13T08:43:12.424Z,4.20
2018-08-13T08:44:12.426Z,4.10
2018-08-13T08:45:12.431Z,4.10
2018-08-13T08:46:12.452Z,4.00
2018-08-13T08:47:12.426Z,4.30
2018-08-13T08:48:12.478Z,4.40
2018-08-13T08:49:12.460Z,4.50
2018-08-13T08:50:12.541Z,4.50
2018-08-13T08:51:12.447Z,4.00
2018-08-13T08:52:12.451Z,4.10
2018-08-13T08:53:12.461Z,4.20
2018-08-13T08:54:12.460Z,4.00
2018-08-13T08:55:13.112Z,3.90
2018-08-13T08:56:12.475Z,4.10
2018-08-13T08:57:12.464Z,4.30
2018-08-13T08:58:12.538Z,4.70
2018-08-13T08:59:12.498Z,4.40
2018-08-13T09:00:12.480Z,3.90
2018-08-13T09:01:12.501Z,3.60
2018-08-13T09:02:12.486Z,4.10
2018-08-13T09:03:12.499Z,3.60
2018-08-13T09:04:12.503Z,4.00
2018-08-13T09:05:12.496Z,3.80
2018-08-13T09:06:12.505Z,3.70
2018-08-13T09:07:12.759Z,3.70
2018-08-13T09:08:13.269Z,3.70
2018-08-13T09:09:12.510Z,3.70
2018-08-13T09:10:12.518Z,3.80
2018-08-13T09:11:12.535Z,4.00
2018-08-13T09:12:12.540Z,3.40
2018-08-13T09:13:12.587Z,3.30
2018-08-13T09:14:12.575Z,3.90
2018-08-13T09:15:12.558Z,3.70
2018-08-13T09:16:12.576Z,3.70
2018-08-13T09:17:12.602Z,4.10
2018-08-13T09:18:12.687Z,3.70
2018-08-13T09:19:12.599Z,3.70
2018-08-13T09:20:12.564Z,3.80
2018-08-13T09:21:12.692Z,4.10
2018-08-13T09:22:12.570Z,4.10
2018-08-13T09:23:13.123Z,4.30
2018-08-13T09:24:12.569Z,3.80
2018-08-13T09:25:12.566Z,4.00
2018-08-13T09:26:12.578Z,3.70
2018-08-13T09:27:12.647Z,3.80
2018-08-13T09:28:12.608Z,3.70
2018-08-13T09:29:12.658Z,3.90
2018-08-13T09:30:12.594Z,3.80
2018-08-13T09:31:12.597Z,3.70
2018-08-13T09:32:12.627Z,3.50
2018-08-13T09:33:13.006Z,3.60
2018-08-13T09:34:12.618Z,3.20
2018-08-13T09:35:12.630Z,3.80
2018-08-13T09:36:12.602Z,3.40
2018-08-13T09:37:12.616Z,3.10
2018-08-13T09:38:12.635Z,3.70
2018-08-13T09:39:13.135Z,3.50
2018-08-13T09:40:12.841Z,3.30
2018-08-13T09:41:12.670Z,3.00
2018-08-13T09:42:12.889Z,3.40
2018-08-13T09:43:12.647Z,3.20
2018-08-13T09:44:12.678Z,3.30
2018-08-13T09:45:12.692Z,3.30
2018-08-13T09:46:12.790Z,3.30
2018-08-13T09:47:13.634Z,3.60
2018-08-13T09:48:12.746Z,3.70
2018-08-13T09:49:13.643Z,3.40
2018-08-13T09:50:12.665Z,3.60
2018-08-13T09:51:12.694Z,3.10
2018-08-13T09:52:13.642Z,3.10
2018-08-13T09:53:12.680Z,3.30
2018-08-13T09:54:12.694Z,3.60
2018-08-13T09:55:12.692Z,3.10
2018-08-13T09:56:12.717Z,3.30
2018-08-13T09:57:12.703Z,3.50
2018-08-13T09:58:12.743Z,3.60
2018-08-13T09:59:12.698Z,3.20
2018-08-13T10:00:12.744Z,3.20
2018-08-13T10:01:12.745Z,3.40
2018-08-13T10:02:12.901Z,3.70
2018-08-13T10:03:12.710Z,3.50
2018-08-13T10:04:12.721Z,3.60
2018-08-13T10:05:12.742Z,3.50
2018-08-13T10:06:12.720Z,3.70
2018-08-13T10:07:12.730Z,3.50
2018-08-13T10:08:12.730Z,3.30
2018-08-13T10:09:12.853Z,3.60
2018-08-13T10:10:12.864Z,4.10
2018-08-13T10:11:12.760Z,3.90
2018-08-13T10:12:13.649Z,3.50
2018-08-13T10:13:12.787Z,3.40
2018-08-13T10:14:12.876Z,3.70
2018-08-13T10:15:12.778Z,3.90
2018-08-13T10:16:12.777Z,3.90
2018-08-13T10:17:12.792Z,4.20
2018-08-13T10:18:12.812Z,3.60
2018-08-13T10:19:12.801Z,3.50
2018-08-13T10:20:12.847Z,3.60
2018-08-13T10:21:12.806Z,3.90
2018-08-13T10:22:12.821Z,3.70
2018-08-13T10:23:15.716Z,3.10
2018-08-13T10:24:12.862Z,2.90
2018-08-13T10:25:12.894Z,3.30
2018-08-13T10:26:12.863Z,3.20
2018-08-13T10:27:12.883Z,2.80
2018-08-13T10:28:12.874Z,3.50
2018-08-13T10:29:12.875Z,2.80
2018-08-13T10:30:12.882Z,2.30
2018-08-13T10:31:12.902Z,2.10
2018-08-13T10:32:12.941Z,2.50
2018-08-13T10:33:12.916Z,3.20
2018-08-13T10:34:12.927Z,3.00
2018-08-13T10:35:13.012Z,2.30
2018-08-13T10:36:12.973Z,2.20
2018-08-13T10:37:12.975Z,2.40
2018-08-13T10:38:13.004Z,2.00
2018-08-13T10:39:13.022Z,2.20
2018-08-13T10:40:13.006Z,1.90
2018-08-13T10:41:13.011Z,2.00
2018-08-13T10:42:13.027Z,1.70
2018-08-13T10:43:13.048Z,2.00
2018-08-13T10:44:13.041Z,2.00
2018-08-13T10:45:13.057Z,2.00
2018-08-13T10:46:13.065Z,2.00
2018-08-13T10:47:13.101Z,1.90
2018-08-13T10:48:13.118Z,1.90
2018-08-13T10:49:13.155Z,1.90
2018-08-13T10:50:13.124Z,1.80
2018-08-13T10:51:13.140Z,2.60
2018-08-13T10:52:13.145Z,2.10
2018-08-13T10:53:13.182Z,2.00
2018-08-13T10:54:13.184Z,2.20
2018-08-13T10:55:13.180Z,1.80
2018-08-13T10:56:13.276Z,2.00
2018-08-13T10:57:13.248Z,1.70
2018-08-13T10:58:13.236Z,1.80
2018-08-13T10:59:13.245Z,1.70
2018-08-13T11:00:14.396Z,1.70
2018-08-13T11:01:13.270Z,2.00
2018-08-13T11:02:13.285Z,1.90
2018-08-13T11:03:13.314Z,1.90
2018-08-13T11:04:13.308Z,2.20
2018-08-13T11:05:13.325Z,2.00
2018-08-13T11:06:13.337Z,2.00
2018-08-13T11:07:13.341Z,1.80
2018-08-13T11:08:13.369Z,1.90
2018-08-13T11:09:13.370Z,2.20
2018-08-13T11:10:13.455Z,2.00
2018-08-13T11:11:13.406Z,2.10
2018-08-13T11:12:13.423Z,2.40
2018-08-13T11:13:13.418Z,2.60
2018-08-13T11:14:13.434Z,2.50
2018-08-13T11:15:13.438Z,2.30
2018-08-13T11:16:13.436Z,2.00
2018-08-13T11:17:13.462Z,2.00
2018-08-13T11:18:13.478Z,1.90
2018-08-13T11:19:13.479Z,2.20
2018-08-13T11:20:13.561Z,2.10
2018-08-13T11:21:13.490Z,2.00
2018-08-13T11:22:13.518Z,2.30
2018-08-13T11:23:13.517Z,2.30
2018-08-13T11:24:16.258Z,2.00
2018-08-13T11:25:13.552Z,2.20
2018-08-13T11:26:13.541Z,2.30
2018-08-13T11:27:13.550Z,2.00
2018-08-13T11:28:13.566Z,2.20
2018-08-13T11:29:13.579Z,2.40
2018-08-13T11:30:14.198Z,2.20
2018-08-13T11:31:14.243Z,2.40
2018-08-13T11:32:13.621Z,2.70
2018-08-13T11:33:13.620Z,2.10
2018-08-13T11:34:13.613Z,2.70
2018-08-13T11:35:13.630Z,2.10
2018-08-13T11:36:13.639Z,2.20
2018-08-13T11:37:13.656Z,2.50
2018-08-13T11:38:13.729Z,2.20
2018-08-13T11:39:13.668Z,2.10
2018-08-13T11:40:13.664Z,2.00
2018-08-13T11:41:13.670Z,2.00
2018-08-13T11:42:13.675Z,2.10
2018-08-13T11:43:13.708Z,1.90
2018-08-13T11:44:13.737Z,2.30
2018-08-13T11:45:13.699Z,2.10
2018-08-13T11:46:13.717Z,2.10
2018-08-13T11:47:13.714Z,2.20
2018-08-13T11:48:13.736Z,2.20
2018-08-13T11:49:13.737Z,2.20
2018-08-13T11:50:13.751Z,2.40
2018-08-13T11:51:13.819Z,2.00
2018-08-13T11:52:13.756Z,2.50
2018-08-13T11:53:13.783Z,2.20
2018-08-13T11:54:13.779Z,2.10
2018-08-13T11:55:13.808Z,2.00
2018-08-13T11:56:13.852Z,2.10
2018-08-13T11:57:13.797Z,1.90
2018-08-13T11:58:14.719Z,2.00
2018-08-13T11:59:13.817Z,2.10
2018-08-13T12:00:13.822Z,2.00
2018-08-13T12:01:14.743Z,2.10
2018-08-13T12:02:13.834Z,2.40
2018-08-13T12:03:13.866Z,2.00
2018-08-13T12:04:13.854Z,2.30
2018-08-13T12:05:13.854Z,2.30
2018-08-13T12:06:13.866Z,2.30
2018-08-13T12:07:13.883Z,1.90
2018-08-13T12:08:13.922Z,2.10
2018-08-13T12:09:13.903Z,2.00
2018-08-13T12:10:13.901Z,2.20
2018-08-13T12:11:13.941Z,2.30
2018-08-13T12:12:13.929Z,2.00
2018-08-13T12:13:13.916Z,2.50
2018-08-13T12:14:14.004Z,2.30
2018-08-13T12:15:13.935Z,2.40
2018-08-13T12:16:13.964Z,2.30
2018-08-13T12:17:13.951Z,2.10
2018-08-13T12:18:13.950Z,2.40
2018-08-13T12:19:14.068Z,2.30
2018-08-13T12:20:13.967Z,2.40
2018-08-13T12:21:13.976Z,2.10
2018-08-13T12:22:13.976Z,2.10
2018-08-13T12:23:14.010Z,2.20
2018-08-13T12:24:14.008Z,2.50
2018-08-13T12:25:14.022Z,2.20
2018-08-13T12:26:14.732Z,2.80
2018-08-13T12:27:14.015Z,2.60
2018-08-13T12:28:14.046Z,3.70
2018-08-13T12:29:14.226Z,2.70
2018-08-13T12:30:14.045Z,2.70
2018-08-13T12:31:14.060Z,3.20
2018-08-13T12:32:14.113Z,2.60
2018-08-13T12:33:14.070Z,2.50
2018-08-13T12:34:14.110Z,2.40
2018-08-13T12:35:14.113Z,2.90
2018-08-13T12:36:14.096Z,2.70
2018-08-13T12:37:14.093Z,2.70
2018-08-13T12:38:14.099Z,2.40
2018-08-13T12:39:14.102Z,2.60
2018-08-13T12:40:14.113Z,2.40
2018-08-13T12:41:14.136Z,2.60
2018-08-13T12:42:14.175Z,2.40
2018-08-13T12:43:14.144Z,2.40
2018-08-13T12:44:14.165Z,2.40
2018-08-13T12:45:14.152Z,2.40
2018-08-13T12:46:14.146Z,2.50
2018-08-13T12:47:14.177Z,2.70
2018-08-13T12:48:14.165Z,2.50
2018-08-13T12:49:14.176Z,3.00
2018-08-13T12:50:14.177Z,2.40
2018-08-13T12:51:14.195Z,2.40
2018-08-13T12:52:14.323Z,2.70
2018-08-13T12:53:14.200Z,2.50
2018-08-13T12:54:14.744Z,2.60
2018-08-13T12:55:14.226Z,2.60
2018-08-13T12:56:14.248Z,2.50
2018-08-13T12:57:14.286Z,2.60
2018-08-13T12:58:14.233Z,2.90
2018-08-13T12:59:14.239Z,2.70
2018-08-13T13:00:14.299Z,2.50
2018-08-13T13:01:14.251Z,2.80
2018-08-13T13:02:14.260Z,3.10
2018-08-13T13:03:14.298Z,2.80
2018-08-13T13:04:14.286Z,2.80
2018-08-13T13:05:14.292Z,3.40
2018-08-13T13:06:14.306Z,2.90
2018-08-13T13:07:14.290Z,3.00
2018-08-13T13:08:14.296Z,2.80
2018-08-13T13:09:14.308Z,2.60
2018-08-13T13:10:14.458Z,2.70
2018-08-13T13:11:14.332Z,2.40
2018-08-13T13:12:14.333Z,2.60
2018-08-13T13:13:14.346Z,2.60
2018-08-13T13:14:14.336Z,2.90
2018-08-13T13:15:14.355Z,2.40
2018-08-13T13:16:14.355Z,2.60
2018-08-13T13:17:14.351Z,2.60
2018-08-13T13:18:14.369Z,2.40
2018-08-13T13:19:14.375Z,2.20
2018-08-13T13:20:14.526Z,2.50
2018-08-13T13:21:14.427Z,2.30
2018-08-13T13:22:14.389Z,2.30